sensor_id;sensor_type;location;lat;lon;timestamp;temperature;humidity
14901;DHT22;7542;49.078;9.194;2023-08-17T00:00:25;29.20;65.60
14901;DHT22;7542;49.078;9.194;2023-08-17T00:01:28;29.20;65.60
14901;DHT22;7542;49.078;9.194;2023-08-17T00:02:30;29.20;65.60
14901;DHT22;7542;49.078;9.194;2023-08-17T00:03:32;29.20;65.60
14901;DHT22;7542;49.078;9.194;2023-08-17T00:04:34;29.30;65.60
14901;DHT22;7542;49.078;9.194;2023-08-17T00:05:36;29.20;65.60
14901;DHT22;7542;49.078;9.194;2023-08-17T00:06:38;29.20;65.60
14901;DHT22;7542;49.078;9.194;2023-08-17T00:07:40;29.20;65.50
14901;DHT22;7542;49.078;9.194;2023-08-17T00:08:42;29.20;65.50
14901;DHT22;7542;49.078;9.194;2023-08-17T00:09:44;29.20;65.50
14901;DHT22;7542;49.078;9.194;2023-08-17T00:10:46;29.20;65.50
14901;DHT22;7542;49.078;9.194;2023-08-17T00:11:49;29.20;65.40
14901;DHT22;7542;49.078;9.194;2023-08-17T00:12:52;29.20;65.40
14901;DHT22;7542;49.078;9.194;2023-08-17T00:13:54;29.20;65.40
14901;DHT22;7542;49.078;9.194;2023-08-17T00:14:56;29.20;65.40
14901;DHT22;7542;49.078;9.194;2023-08-17T00:15:57;29.10;65.40
14901;DHT22;7542;49.078;9.194;2023-08-17T00:16:59;29.10;65.40
14901;DHT22;7542;49.078;9.194;2023-08-17T00:18:01;29.10;65.50
14901;DHT22;7542;49.078;9.194;2023-08-17T00:19:03;29.30;65.50
14901;DHT22;7542;49.078;9.194;2023-08-17T00:20:06;29.10;65.40
14901;DHT22;7542;49.078;9.194;2023-08-17T00:21:08;29.10;65.40
14901;DHT22;7542;49.078;9.194;2023-08-17T00:22:11;29.10;65.40
14901;DHT22;7542;49.078;9.194;2023-08-17T00:23:13;29.10;65.50
14901;DHT22;7542;49.078;9.194;2023-08-17T00:24:15;29.10;65.40
14901;DHT22;7542;49.078;9.194;2023-08-17T00:25:17;29.10;65.40
14901;DHT22;7542;49.078;9.194;2023-08-17T00:26:19;29.00;65.40
14901;DHT22;7542;49.078;9.194;2023-08-17T00:27:21;29.10;65.40
14901;DHT22;7542;49.078;9.194;2023-08-17T00:28:27;29.10;65.40
14901;DHT22;7542;49.078;9.194;2023-08-17T00:29:29;29.10;65.50
14901;DHT22;7542;49.078;9.194;2023-08-17T00:30:31;29.10;65.50
14901;DHT22;7542;49.078;9.194;2023-08-17T00:31:33;29.00;65.50
14901;DHT22;7542;49.078;9.194;2023-08-17T00:32:34;29.00;65.50
14901;DHT22;7542;49.078;9.194;2023-08-17T00:33:36;29.00;65.50
14901;DHT22;7542;49.078;9.194;2023-08-17T00:34:38;29.00;65.60
14901;DHT22;7542;49.078;9.194;2023-08-17T00:35:40;29.00;65.60
14901;DHT22;7542;49.078;9.194;2023-08-17T00:36:42;29.00;65.60
14901;DHT22;7542;49.078;9.194;2023-08-17T00:37:44;28.90;64.90
14901;DHT22;7542;49.078;9.194;2023-08-17T00:38:46;28.90;65.00
14901;DHT22;7542;49.078;9.194;2023-08-17T00:39:48;29.00;66.00
14901;DHT22;7542;49.078;9.194;2023-08-17T00:40:49;29.00;66.00
14901;DHT22;7542;49.078;9.194;2023-08-17T00:41:52;28.90;65.20
14901;DHT22;7542;49.078;9.194;2023-08-17T00:42:54;28.90;65.20
14901;DHT22;7542;49.078;9.194;2023-08-17T00:43:56;28.90;65.10
14901;DHT22;7542;49.078;9.194;2023-08-17T00:44:58;28.90;65.20
14901;DHT22;7542;49.078;9.194;2023-08-17T00:46:00;29.00;65.90
14901;DHT22;7542;49.078;9.194;2023-08-17T00:47:03;29.00;65.90
14901;DHT22;7542;49.078;9.194;2023-08-17T00:48:06;29.00;65.90
14901;DHT22;7542;49.078;9.194;2023-08-17T00:49:10;28.90;65.20
14901;DHT22;7542;49.078;9.194;2023-08-17T00:50:13;28.90;65.20
14901;DHT22;7542;49.078;9.194;2023-08-17T00:51:16;28.90;65.20
14901;DHT22;7542;49.078;9.194;2023-08-17T00:52:18;28.90;65.20
14901;DHT22;7542;49.078;9.194;2023-08-17T00:53:20;28.90;65.20
14901;DHT22;7542;49.078;9.194;2023-08-17T00:54:27;28.90;65.20
14901;DHT22;7542;49.078;9.194;2023-08-17T00:55:31;28.90;65.20
14901;DHT22;7542;49.078;9.194;2023-08-17T00:56:35;28.90;65.20
14901;DHT22;7542;49.078;9.194;2023-08-17T00:57:38;28.90;65.20
14901;DHT22;7542;49.078;9.194;2023-08-17T00:58:42;28.90;65.30
14901;DHT22;7542;49.078;9.194;2023-08-17T00:59:45;29.10;66.00
14901;DHT22;7542;49.078;9.194;2023-08-17T01:01:05;28.80;65.20
14901;DHT22;7542;49.078;9.194;2023-08-17T01:02:07;28.80;65.30
14901;DHT22;7542;49.078;9.194;2023-08-17T01:03:10;28.80;65.40
14901;DHT22;7542;49.078;9.194;2023-08-17T01:04:12;28.80;65.40
14901;DHT22;7542;49.078;9.194;2023-08-17T01:05:13;28.80;65.40
14901;DHT22;7542;49.078;9.194;2023-08-17T01:06:15;28.80;65.40
14901;DHT22;7542;49.078;9.194;2023-08-17T01:07:17;28.80;65.40
14901;DHT22;7542;49.078;9.194;2023-08-17T01:08:19;28.80;65.40
14901;DHT22;7542;49.078;9.194;2023-08-17T01:09:21;28.80;65.40
14901;DHT22;7542;49.078;9.194;2023-08-17T01:10:23;28.80;65.40
14901;DHT22;7542;49.078;9.194;2023-08-17T01:11:36;28.70;65.50
14901;DHT22;7542;49.078;9.194;2023-08-17T01:13:14;28.80;65.50
14901;DHT22;7542;49.078;9.194;2023-08-17T01:14:33;28.70;65.50
14901;DHT22;7542;49.078;9.194;2023-08-17T01:15:42;28.70;65.50
14901;DHT22;7542;49.078;9.194;2023-08-17T01:17:03;28.70;65.60
14901;DHT22;7542;49.078;9.194;2023-08-17T01:18:29;28.70;65.60
14901;DHT22;7542;49.078;9.194;2023-08-17T01:19:35;28.70;65.70
14901;DHT22;7542;49.078;9.194;2023-08-17T01:20:39;31.90;67.70
14901;DHT22;7542;49.078;9.194;2023-08-17T01:21:44;28.60;65.80
14901;DHT22;7542;49.078;9.194;2023-08-17T01:22:55;28.70;65.80
14901;DHT22;7542;49.078;9.194;2023-08-17T01:24:03;28.60;65.90
14901;DHT22;7542;49.078;9.194;2023-08-17T01:25:06;28.60;65.90
14901;DHT22;7542;49.078;9.194;2023-08-17T01:26:09;28.60;65.90
14901;DHT22;7542;49.078;9.194;2023-08-17T01:27:11;28.60;65.90
14901;DHT22;7542;49.078;9.194;2023-08-17T01:28:13;28.60;66.00
14901;DHT22;7542;49.078;9.194;2023-08-17T01:29:15;28.60;66.00
14901;DHT22;7542;49.078;9.194;2023-08-17T01:30:18;28.60;66.10
14901;DHT22;7542;49.078;9.194;2023-08-17T01:31:32;28.60;66.10
14901;DHT22;7542;49.078;9.194;2023-08-17T01:32:57;28.50;66.10
14901;DHT22;7542;49.078;9.194;2023-08-17T01:34:08;28.50;66.20
14901;DHT22;7542;49.078;9.194;2023-08-17T01:36:33;28.60;66.10
14901;DHT22;7542;49.078;9.194;2023-08-17T01:37:40;28.50;66.20
14901;DHT22;7542;49.078;9.194;2023-08-17T01:38:44;28.60;66.10
14901;DHT22;7542;49.078;9.194;2023-08-17T01:39:50;28.50;66.10
14901;DHT22;7542;49.078;9.194;2023-08-17T01:40:57;28.50;66.10
14901;DHT22;7542;49.078;9.194;2023-08-17T01:42:00;28.60;66.20
14901;DHT22;7542;49.078;9.194;2023-08-17T01:43:04;28.60;66.20
14901;DHT22;7542;49.078;9.194;2023-08-17T01:44:06;28.50;66.20
14901;DHT22;7542;49.078;9.194;2023-08-17T01:45:09;28.50;66.20
14901;DHT22;7542;49.078;9.194;2023-08-17T01:46:16;28.50;66.30
14901;DHT22;7542;49.078;9.194;2023-08-17T01:47:22;28.50;66.30
14901;DHT22;7542;49.078;9.194;2023-08-17T01:48:25;28.50;66.30
14901;DHT22;7542;49.078;9.194;2023-08-17T01:49:27;28.50;66.30
14901;DHT22;7542;49.078;9.194;2023-08-17T01:50:29;28.70;66.30
14901;DHT22;7542;49.078;9.194;2023-08-17T01:51:30;28.50;66.30
14901;DHT22;7542;49.078;9.194;2023-08-17T01:52:32;28.40;66.30
14901;DHT22;7542;49.078;9.194;2023-08-17T01:53:35;28.40;66.30
14901;DHT22;7542;49.078;9.194;2023-08-17T01:54:36;28.40;66.30
14901;DHT22;7542;49.078;9.194;2023-08-17T01:55:38;28.40;66.30
14901;DHT22;7542;49.078;9.194;2023-08-17T01:56:40;28.40;66.30
14901;DHT22;7542;49.078;9.194;2023-08-17T01:57:42;28.40;66.30
14901;DHT22;7542;49.078;9.194;2023-08-17T01:58:44;28.50;66.40
14901;DHT22;7542;49.078;9.194;2023-08-17T01:59:46;28.40;66.40
14901;DHT22;7542;49.078;9.194;2023-08-17T02:00:48;28.40;66.40
14901;DHT22;7542;49.078;9.194;2023-08-17T02:01:49;28.40;66.40
14901;DHT22;7542;49.078;9.194;2023-08-17T02:02:51;28.40;66.40
14901;DHT22;7542;49.078;9.194;2023-08-17T02:03:53;28.40;66.40
14901;DHT22;7542;49.078;9.194;2023-08-17T02:04:55;28.40;66.40
14901;DHT22;7542;49.078;9.194;2023-08-17T02:05:58;28.40;66.40
14901;DHT22;7542;49.078;9.194;2023-08-17T02:07:00;28.40;66.40
14901;DHT22;7542;49.078;9.194;2023-08-17T02:08:02;28.40;66.40
14901;DHT22;7542;49.078;9.194;2023-08-17T02:09:05;28.40;66.40
14901;DHT22;7542;49.078;9.194;2023-08-17T02:10:07;28.40;66.40
14901;DHT22;7542;49.078;9.194;2023-08-17T02:11:09;28.40;66.40
14901;DHT22;7542;49.078;9.194;2023-08-17T02:12:11;28.40;66.40
14901;DHT22;7542;49.078;9.194;2023-08-17T02:13:14;28.30;66.50
14901;DHT22;7542;49.078;9.194;2023-08-17T02:14:19;28.40;66.40
14901;DHT22;7542;49.078;9.194;2023-08-17T02:15:20;28.30;66.30
14901;DHT22;7542;49.078;9.194;2023-08-17T02:16:22;28.30;66.40
14901;DHT22;7542;49.078;9.194;2023-08-17T02:17:24;28.30;66.30
14901;DHT22;7542;49.078;9.194;2023-08-17T02:18:26;28.30;66.30
14901;DHT22;7542;49.078;9.194;2023-08-17T02:19:32;28.30;66.30
14901;DHT22;7542;49.078;9.194;2023-08-17T02:20:34;28.30;66.30
14901;DHT22;7542;49.078;9.194;2023-08-17T02:21:36;28.30;66.30
14901;DHT22;7542;49.078;9.194;2023-08-17T02:22:38;28.40;66.30
14901;DHT22;7542;49.078;9.194;2023-08-17T02:23:40;28.30;66.20
14901;DHT22;7542;49.078;9.194;2023-08-17T02:24:42;28.40;66.20
14901;DHT22;7542;49.078;9.194;2023-08-17T02:25:44;28.30;66.20
14901;DHT22;7542;49.078;9.194;2023-08-17T02:26:46;28.30;66.20
14901;DHT22;7542;49.078;9.194;2023-08-17T02:27:47;28.30;66.20
14901;DHT22;7542;49.078;9.194;2023-08-17T02:28:49;28.30;66.10
14901;DHT22;7542;49.078;9.194;2023-08-17T02:29:51;25.80;64.10
14901;DHT22;7542;49.078;9.194;2023-08-17T02:30:58;29.60;66.80
14901;DHT22;7542;49.078;9.194;2023-08-17T02:32:00;28.30;66.10
14901;DHT22;7542;49.078;9.194;2023-08-17T02:33:02;28.30;66.10
14901;DHT22;7542;49.078;9.194;2023-08-17T02:34:05;28.30;66.00
14901;DHT22;7542;49.078;9.194;2023-08-17T02:35:07;28.30;66.10
14901;DHT22;7542;49.078;9.194;2023-08-17T02:36:09;28.20;66.00
14901;DHT22;7542;49.078;9.194;2023-08-17T02:37:11;28.20;66.00
14901;DHT22;7542;49.078;9.194;2023-08-17T02:38:13;28.20;66.10
14901;DHT22;7542;49.078;9.194;2023-08-17T02:39:15;28.20;66.10
14901;DHT22;7542;49.078;9.194;2023-08-17T02:40:17;28.20;66.10
14901;DHT22;7542;49.078;9.194;2023-08-17T02:41:19;28.20;66.10
14901;DHT22;7542;49.078;9.194;2023-08-17T02:42:21;28.20;66.00
14901;DHT22;7542;49.078;9.194;2023-08-17T02:43:23;28.20;66.00
14901;DHT22;7542;49.078;9.194;2023-08-17T02:44:25;28.20;66.00
14901;DHT22;7542;49.078;9.194;2023-08-17T02:45:26;28.20;66.10
14901;DHT22;7542;49.078;9.194;2023-08-17T02:46:28;28.20;66.20
14901;DHT22;7542;49.078;9.194;2023-08-17T02:47:30;28.20;66.20
14901;DHT22;7542;49.078;9.194;2023-08-17T02:48:33;28.20;66.20
14901;DHT22;7542;49.078;9.194;2023-08-17T02:49:35;28.10;66.10
14901;DHT22;7542;49.078;9.194;2023-08-17T02:50:37;28.20;66.20
14901;DHT22;7542;49.078;9.194;2023-08-17T02:51:38;28.10;66.20
14901;DHT22;7542;49.078;9.194;2023-08-17T02:52:40;28.10;66.20
14901;DHT22;7542;49.078;9.194;2023-08-17T02:53:42;28.10;66.20
14901;DHT22;7542;49.078;9.194;2023-08-17T02:54:44;28.10;66.30
14901;DHT22;7542;49.078;9.194;2023-08-17T02:55:46;28.10;66.30
14901;DHT22;7542;49.078;9.194;2023-08-17T02:56:48;28.10;66.30
14901;DHT22;7542;49.078;9.194;2023-08-17T02:57:49;28.00;66.40
14901;DHT22;7542;49.078;9.194;2023-08-17T02:58:51;28.00;66.40
14901;DHT22;7542;49.078;9.194;2023-08-17T02:59:53;28.10;66.40
14901;DHT22;7542;49.078;9.194;2023-08-17T03:00:55;28.20;66.50
14901;DHT22;7542;49.078;9.194;2023-08-17T03:01:57;28.00;66.50
14901;DHT22;7542;49.078;9.194;2023-08-17T03:02:59;28.00;66.50
14901;DHT22;7542;49.078;9.194;2023-08-17T03:04:01;28.00;66.60
14901;DHT22;7542;49.078;9.194;2023-08-17T03:05:03;28.00;66.50
14901;DHT22;7542;49.078;9.194;2023-08-17T03:06:06;28.00;66.60
14901;DHT22;7542;49.078;9.194;2023-08-17T03:07:08;28.00;66.60
14901;DHT22;7542;49.078;9.194;2023-08-17T03:08:10;28.00;66.70
14901;DHT22;7542;49.078;9.194;2023-08-17T03:09:11;28.00;66.70
14901;DHT22;7542;49.078;9.194;2023-08-17T03:10:13;28.00;66.70
14901;DHT22;7542;49.078;9.194;2023-08-17T03:11:15;28.00;66.70
14901;DHT22;7542;49.078;9.194;2023-08-17T03:12:17;28.00;66.70
14901;DHT22;7542;49.078;9.194;2023-08-17T03:13:19;28.00;66.70
14901;DHT22;7542;49.078;9.194;2023-08-17T03:14:21;28.00;66.60
14901;DHT22;7542;49.078;9.194;2023-08-17T03:15:23;28.00;66.60
14901;DHT22;7542;49.078;9.194;2023-08-17T03:16:25;27.90;66.00
14901;DHT22;7542;49.078;9.194;2023-08-17T03:17:32;27.90;66.00
14901;DHT22;7542;49.078;9.194;2023-08-17T03:18:34;28.00;66.60
14901;DHT22;7542;49.078;9.194;2023-08-17T03:19:35;27.90;65.90
14901;DHT22;7542;49.078;9.194;2023-08-17T03:20:37;27.90;65.90
14901;DHT22;7542;49.078;9.194;2023-08-17T03:21:39;27.90;65.80
14901;DHT22;7542;49.078;9.194;2023-08-17T03:22:42;27.90;65.90
14901;DHT22;7542;49.078;9.194;2023-08-17T03:23:43;27.90;65.80
14901;DHT22;7542;49.078;9.194;2023-08-17T03:24:45;27.90;65.80
14901;DHT22;7542;49.078;9.194;2023-08-17T03:25:52;27.90;65.80
14901;DHT22;7542;49.078;9.194;2023-08-17T03:26:54;27.90;65.80
14901;DHT22;7542;49.078;9.194;2023-08-17T03:27:56;27.90;65.70
14901;DHT22;7542;49.078;9.194;2023-08-17T03:28:58;27.90;65.80
14901;DHT22;7542;49.078;9.194;2023-08-17T03:30:00;27.80;65.80
14901;DHT22;7542;49.078;9.194;2023-08-17T03:31:02;27.90;65.80
14901;DHT22;7542;49.078;9.194;2023-08-17T03:32:04;27.90;65.80
14901;DHT22;7542;49.078;9.194;2023-08-17T03:33:06;27.80;65.80
14901;DHT22;7542;49.078;9.194;2023-08-17T03:34:09;27.80;65.80
14901;DHT22;7542;49.078;9.194;2023-08-17T03:35:11;27.80;65.80
14901;DHT22;7542;49.078;9.194;2023-08-17T03:36:14;27.80;65.80
14901;DHT22;7542;49.078;9.194;2023-08-17T03:37:17;27.90;65.90
14901;DHT22;7542;49.078;9.194;2023-08-17T03:38:18;27.80;66.00
14901;DHT22;7542;49.078;9.194;2023-08-17T03:39:20;27.80;66.00
14901;DHT22;7542;49.078;9.194;2023-08-17T03:40:22;27.80;66.00
14901;DHT22;7542;49.078;9.194;2023-08-17T03:41:24;27.80;66.00
14901;DHT22;7542;49.078;9.194;2023-08-17T03:42:26;27.80;66.10
14901;DHT22;7542;49.078;9.194;2023-08-17T03:43:28;27.80;66.10
14901;DHT22;7542;49.078;9.194;2023-08-17T03:44:30;27.80;66.20
14901;DHT22;7542;49.078;9.194;2023-08-17T03:45:32;27.80;66.20
14901;DHT22;7542;49.078;9.194;2023-08-17T03:46:34;27.80;66.20
14901;DHT22;7542;49.078;9.194;2023-08-17T03:47:36;27.80;66.20
14901;DHT22;7542;49.078;9.194;2023-08-17T03:48:38;27.80;66.20
14901;DHT22;7542;49.078;9.194;2023-08-17T03:49:40;27.80;66.30
14901;DHT22;7542;49.078;9.194;2023-08-17T03:50:42;27.70;66.30
14901;DHT22;7542;49.078;9.194;2023-08-17T03:51:44;27.70;66.30
14901;DHT22;7542;49.078;9.194;2023-08-17T03:52:46;27.80;66.30
14901;DHT22;7542;49.078;9.194;2023-08-17T03:53:48;27.80;66.30
14901;DHT22;7542;49.078;9.194;2023-08-17T03:54:50;27.70;66.20
14901;DHT22;7542;49.078;9.194;2023-08-17T03:55:51;27.80;66.30
14901;DHT22;7542;49.078;9.194;2023-08-17T03:56:53;27.70;66.20
14901;DHT22;7542;49.078;9.194;2023-08-17T03:57:55;27.70;66.20
14901;DHT22;7542;49.078;9.194;2023-08-17T03:58:58;27.70;66.20
14901;DHT22;7542;49.078;9.194;2023-08-17T04:00:00;27.80;66.20
14901;DHT22;7542;49.078;9.194;2023-08-17T04:01:02;27.70;66.20
14901;DHT22;7542;49.078;9.194;2023-08-17T04:02:05;27.70;66.20
14901;DHT22;7542;49.078;9.194;2023-08-17T04:03:07;27.70;66.20
14901;DHT22;7542;49.078;9.194;2023-08-17T04:04:09;27.70;66.30
14901;DHT22;7542;49.078;9.194;2023-08-17T04:05:11;27.70;66.30
14901;DHT22;7542;49.078;9.194;2023-08-17T04:06:13;27.70;66.30
14901;DHT22;7542;49.078;9.194;2023-08-17T04:07:22;27.60;66.30
14901;DHT22;7542;49.078;9.194;2023-08-17T04:08:25;27.60;66.30
14901;DHT22;7542;49.078;9.194;2023-08-17T04:09:27;27.60;66.30
14901;DHT22;7542;49.078;9.194;2023-08-17T04:10:29;27.70;66.20
14901;DHT22;7542;49.078;9.194;2023-08-17T04:11:34;27.60;66.20
14901;DHT22;7542;49.078;9.194;2023-08-17T04:12:36;27.60;66.20
14901;DHT22;7542;49.078;9.194;2023-08-17T04:13:38;27.60;66.20
14901;DHT22;7542;49.078;9.194;2023-08-17T04:14:40;29.30;67.60
14901;DHT22;7542;49.078;9.194;2023-08-17T04:15:42;27.60;66.30
14901;DHT22;7542;49.078;9.194;2023-08-17T04:16:44;27.60;66.30
14901;DHT22;7542;49.078;9.194;2023-08-17T04:17:46;27.60;66.30
14901;DHT22;7542;49.078;9.194;2023-08-17T04:18:48;27.50;66.30
14901;DHT22;7542;49.078;9.194;2023-08-17T04:19:49;27.60;66.30
14901;DHT22;7542;49.078;9.194;2023-08-17T04:20:51;27.50;66.30
14901;DHT22;7542;49.078;9.194;2023-08-17T04:21:56;27.50;66.30
14901;DHT22;7542;49.078;9.194;2023-08-17T04:22:58;27.50;66.30
14901;DHT22;7542;49.078;9.194;2023-08-17T04:23:59;27.60;66.30
14901;DHT22;7542;49.078;9.194;2023-08-17T04:25:01;27.50;66.20
14901;DHT22;7542;49.078;9.194;2023-08-17T04:26:03;27.50;66.20
14901;DHT22;7542;49.078;9.194;2023-08-17T04:27:05;27.50;66.20
14901;DHT22;7542;49.078;9.194;2023-08-17T04:28:07;27.50;66.20
14901;DHT22;7542;49.078;9.194;2023-08-17T04:29:09;27.70;66.20
14901;DHT22;7542;49.078;9.194;2023-08-17T04:30:11;27.50;66.20
14901;DHT22;7542;49.078;9.194;2023-08-17T04:31:13;27.50;66.10
14901;DHT22;7542;49.078;9.194;2023-08-17T04:32:15;27.50;66.10
14901;DHT22;7542;49.078;9.194;2023-08-17T04:33:17;27.50;66.10
14901;DHT22;7542;49.078;9.194;2023-08-17T04:34:20;27.50;66.10
14901;DHT22;7542;49.078;9.194;2023-08-17T04:35:21;27.50;66.10
14901;DHT22;7542;49.078;9.194;2023-08-17T04:36:23;27.50;66.10
14901;DHT22;7542;49.078;9.194;2023-08-17T04:37:25;27.50;66.10
14901;DHT22;7542;49.078;9.194;2023-08-17T04:38:28;27.50;66.00
14901;DHT22;7542;49.078;9.194;2023-08-17T04:39:30;27.50;66.00
14901;DHT22;7542;49.078;9.194;2023-08-17T04:40:32;27.50;66.00
14901;DHT22;7542;49.078;9.194;2023-08-17T04:41:34;27.40;66.00
14901;DHT22;7542;49.078;9.194;2023-08-17T04:42:36;27.40;66.00
14901;DHT22;7542;49.078;9.194;2023-08-17T04:43:38;27.40;66.00
14901;DHT22;7542;49.078;9.194;2023-08-17T04:44:40;27.40;66.00
14901;DHT22;7542;49.078;9.194;2023-08-17T04:45:42;27.40;66.00
14901;DHT22;7542;49.078;9.194;2023-08-17T04:46:45;27.40;66.00
14901;DHT22;7542;49.078;9.194;2023-08-17T04:47:47;27.40;66.00
14901;DHT22;7542;49.078;9.194;2023-08-17T04:48:50;27.50;66.00
14901;DHT22;7542;49.078;9.194;2023-08-17T04:49:51;27.30;66.00
14901;DHT22;7542;49.078;9.194;2023-08-17T04:50:53;27.30;66.00
14901;DHT22;7542;49.078;9.194;2023-08-17T04:51:55;27.50;66.00
14901;DHT22;7542;49.078;9.194;2023-08-17T04:52:57;27.40;66.00
14901;DHT22;7542;49.078;9.194;2023-08-17T04:53:59;27.30;66.00
14901;DHT22;7542;49.078;9.194;2023-08-17T04:55:01;27.30;66.00
14901;DHT22;7542;49.078;9.194;2023-08-17T04:56:03;27.30;66.00
14901;DHT22;7542;49.078;9.194;2023-08-17T04:57:06;27.30;66.00
14901;DHT22;7542;49.078;9.194;2023-08-17T04:58:07;27.30;66.00
14901;DHT22;7542;49.078;9.194;2023-08-17T04:59:09;27.30;66.00
14901;DHT22;7542;49.078;9.194;2023-08-17T05:00:12;27.30;66.00
14901;DHT22;7542;49.078;9.194;2023-08-17T05:01:15;27.10;66.00
14901;DHT22;7542;49.078;9.194;2023-08-17T05:02:17;27.30;66.00
14901;DHT22;7542;49.078;9.194;2023-08-17T05:03:19;27.40;66.10
14901;DHT22;7542;49.078;9.194;2023-08-17T05:04:35;27.40;66.10
14901;DHT22;7542;49.078;9.194;2023-08-17T05:05:37;27.30;66.10
14901;DHT22;7542;49.078;9.194;2023-08-17T05:06:39;27.30;66.10
14901;DHT22;7542;49.078;9.194;2023-08-17T05:07:40;27.30;66.10
14901;DHT22;7542;49.078;9.194;2023-08-17T05:08:42;27.30;66.10
14901;DHT22;7542;49.078;9.194;2023-08-17T05:09:44;27.30;66.10
14901;DHT22;7542;49.078;9.194;2023-08-17T05:10:46;27.30;66.20
14901;DHT22;7542;49.078;9.194;2023-08-17T05:11:48;27.30;66.20
14901;DHT22;7542;49.078;9.194;2023-08-17T05:12:50;28.70;66.90
14901;DHT22;7542;49.078;9.194;2023-08-17T05:13:52;27.30;66.30
14901;DHT22;7542;49.078;9.194;2023-08-17T05:14:54;27.30;66.20
14901;DHT22;7542;49.078;9.194;2023-08-17T05:15:56;27.30;66.20
14901;DHT22;7542;49.078;9.194;2023-08-17T05:16:58;27.30;66.30
14901;DHT22;7542;49.078;9.194;2023-08-17T05:18:00;27.30;66.30
14901;DHT22;7542;49.078;9.194;2023-08-17T05:19:02;27.30;66.40
14901;DHT22;7542;49.078;9.194;2023-08-17T05:20:04;27.20;66.40
14901;DHT22;7542;49.078;9.194;2023-08-17T05:21:07;27.30;66.40
14901;DHT22;7542;49.078;9.194;2023-08-17T05:22:11;27.20;66.40
14901;DHT22;7542;49.078;9.194;2023-08-17T05:23:14;27.20;66.50
14901;DHT22;7542;49.078;9.194;2023-08-17T05:24:16;27.20;66.80
14901;DHT22;7542;49.078;9.194;2023-08-17T05:25:19;27.30;67.00
14901;DHT22;7542;49.078;9.194;2023-08-17T05:26:21;27.30;66.90
14901;DHT22;7542;49.078;9.194;2023-08-17T05:27:23;27.20;66.90
14901;DHT22;7542;49.078;9.194;2023-08-17T05:28:26;27.30;66.90
14901;DHT22;7542;49.078;9.194;2023-08-17T05:29:28;27.20;66.90
14901;DHT22;7542;49.078;9.194;2023-08-17T05:30:30;27.30;66.90
14901;DHT22;7542;49.078;9.194;2023-08-17T05:31:32;27.30;67.00
14901;DHT22;7542;49.078;9.194;2023-08-17T05:32:34;27.30;67.00
14901;DHT22;7542;49.078;9.194;2023-08-17T05:33:36;27.20;67.00
14901;DHT22;7542;49.078;9.194;2023-08-17T05:34:38;27.30;67.00
14901;DHT22;7542;49.078;9.194;2023-08-17T05:35:40;27.20;67.00
14901;DHT22;7542;49.078;9.194;2023-08-17T05:36:44;27.30;67.00
14901;DHT22;7542;49.078;9.194;2023-08-17T05:37:46;27.20;67.00
14901;DHT22;7542;49.078;9.194;2023-08-17T05:38:48;27.40;67.00
14901;DHT22;7542;49.078;9.194;2023-08-17T05:39:50;27.30;66.90
14901;DHT22;7542;49.078;9.194;2023-08-17T05:40:56;27.30;66.90
14901;DHT22;7542;49.078;9.194;2023-08-17T05:42:01;27.20;67.00
14901;DHT22;7542;49.078;9.194;2023-08-17T05:43:03;27.30;67.00
14901;DHT22;7542;49.078;9.194;2023-08-17T05:44:05;27.30;66.90
14901;DHT22;7542;49.078;9.194;2023-08-17T05:45:08;27.30;66.90
14901;DHT22;7542;49.078;9.194;2023-08-17T05:46:10;27.30;67.00
14901;DHT22;7542;49.078;9.194;2023-08-17T05:47:12;27.30;67.00
14901;DHT22;7542;49.078;9.194;2023-08-17T05:48:19;27.20;67.10
14901;DHT22;7542;49.078;9.194;2023-08-17T05:49:22;27.30;67.10
14901;DHT22;7542;49.078;9.194;2023-08-17T05:50:24;27.30;67.10
14901;DHT22;7542;49.078;9.194;2023-08-17T05:51:26;27.20;67.10
14901;DHT22;7542;49.078;9.194;2023-08-17T05:52:28;27.30;67.20
14901;DHT22;7542;49.078;9.194;2023-08-17T05:53:30;27.30;67.20
14901;DHT22;7542;49.078;9.194;2023-08-17T05:54:31;27.30;67.20
14901;DHT22;7542;49.078;9.194;2023-08-17T05:55:33;27.20;67.30
14901;DHT22;7542;49.078;9.194;2023-08-17T05:56:35;27.20;67.30
14901;DHT22;7542;49.078;9.194;2023-08-17T05:57:37;27.30;67.30
14901;DHT22;7542;49.078;9.194;2023-08-17T05:58:39;27.20;67.30
14901;DHT22;7542;49.078;9.194;2023-08-17T05:59:42;27.20;67.50
14901;DHT22;7542;49.078;9.194;2023-08-17T06:00:45;27.20;67.40
14901;DHT22;7542;49.078;9.194;2023-08-17T06:01:47;27.20;67.50
14901;DHT22;7542;49.078;9.194;2023-08-17T06:02:49;27.20;67.50
14901;DHT22;7542;49.078;9.194;2023-08-17T06:03:53;27.20;67.50
14901;DHT22;7542;49.078;9.194;2023-08-17T06:04:55;27.20;67.50
14901;DHT22;7542;49.078;9.194;2023-08-17T06:05:57;27.20;67.50
14901;DHT22;7542;49.078;9.194;2023-08-17T06:06:59;27.20;67.60
14901;DHT22;7542;49.078;9.194;2023-08-17T06:08:01;27.20;67.70
14901;DHT22;7542;49.078;9.194;2023-08-17T06:09:03;27.20;67.70
14901;DHT22;7542;49.078;9.194;2023-08-17T06:10:05;27.20;67.80
14901;DHT22;7542;49.078;9.194;2023-08-17T06:11:08;27.20;67.80
14901;DHT22;7542;49.078;9.194;2023-08-17T06:12:09;27.20;67.90
14901;DHT22;7542;49.078;9.194;2023-08-17T06:13:11;27.20;67.90
14901;DHT22;7542;49.078;9.194;2023-08-17T06:14:13;27.20;67.90
14901;DHT22;7542;49.078;9.194;2023-08-17T06:15:16;27.20;67.90
14901;DHT22;7542;49.078;9.194;2023-08-17T06:16:18;27.20;68.00
14901;DHT22;7542;49.078;9.194;2023-08-17T06:17:20;27.20;68.10
14901;DHT22;7542;49.078;9.194;2023-08-17T06:18:22;27.20;68.10
14901;DHT22;7542;49.078;9.194;2023-08-17T06:19:24;27.30;68.10
14901;DHT22;7542;49.078;9.194;2023-08-17T06:20:26;27.30;68.10
14901;DHT22;7542;49.078;9.194;2023-08-17T06:21:28;27.30;68.10
14901;DHT22;7542;49.078;9.194;2023-08-17T06:22:30;27.30;68.00
14901;DHT22;7542;49.078;9.194;2023-08-17T06:23:31;27.20;68.10
14901;DHT22;7542;49.078;9.194;2023-08-17T06:24:33;27.20;68.10
14901;DHT22;7542;49.078;9.194;2023-08-17T06:25:35;27.30;68.10
14901;DHT22;7542;49.078;9.194;2023-08-17T06:26:37;27.20;68.20
14901;DHT22;7542;49.078;9.194;2023-08-17T06:27:41;27.30;68.10
14901;DHT22;7542;49.078;9.194;2023-08-17T06:28:44;27.30;67.90
14901;DHT22;7542;49.078;9.194;2023-08-17T06:29:46;27.20;67.90
14901;DHT22;7542;49.078;9.194;2023-08-17T06:30:52;27.20;67.80
14901;DHT22;7542;49.078;9.194;2023-08-17T06:31:55;27.30;67.90
14901;DHT22;7542;49.078;9.194;2023-08-17T06:32:56;27.20;67.80
14901;DHT22;7542;49.078;9.194;2023-08-17T06:33:58;27.20;67.90
14901;DHT22;7542;49.078;9.194;2023-08-17T06:35:00;27.80;68.00
14901;DHT22;7542;49.078;9.194;2023-08-17T06:36:02;27.30;68.10
14901;DHT22;7542;49.078;9.194;2023-08-17T06:37:04;27.20;68.10
14901;DHT22;7542;49.078;9.194;2023-08-17T06:38:07;27.30;68.10
14901;DHT22;7542;49.078;9.194;2023-08-17T06:39:09;27.20;68.20
14901;DHT22;7542;49.078;9.194;2023-08-17T06:40:11;27.30;68.30
14901;DHT22;7542;49.078;9.194;2023-08-17T06:41:13;27.20;68.30
14901;DHT22;7542;49.078;9.194;2023-08-17T06:42:15;28.40;69.00
14901;DHT22;7542;49.078;9.194;2023-08-17T06:43:18;22.10;65.40
14901;DHT22;7542;49.078;9.194;2023-08-17T06:44:20;27.30;68.50